createdAt,value
2023-04-14T00:02:25.193Z,8.20
2023-04-14T00:04:53.720Z,8.30
2023-04-14T00:07:21.717Z,8.30
2023-04-14T00:09:49.381Z,8.30
2023-04-14T00:12:16.801Z,8.40
2023-04-14T00:14:44.388Z,8.30
2023-04-14T00:17:12.401Z,8.30
2023-04-14T00:19:39.849Z,8.30
2023-04-14T00:22:07.325Z,8.30
2023-04-14T00:24:40.779Z,8.30
2023-04-14T00:27:08.122Z,8.20
2023-04-14T00:29:35.781Z,8.20
2023-04-14T00:32:03.468Z,8.20
2023-04-14T00:34:33.124Z,8.20
2023-04-14T00:37:00.518Z,8.10
2023-04-14T00:39:30.765Z,8.20
2023-04-14T00:41:58.123Z,8.10
2023-04-14T00:44:25.607Z,8.20
2023-04-14T00:46:53.110Z,8.10
2023-04-14T00:49:20.724Z,8.10
2023-04-14T00:51:48.413Z,8.10
2023-04-14T00:54:20.375Z,8.10
2023-04-14T00:56:48.253Z,8.10
2023-04-14T00:59:17.485Z,8.10
2023-04-14T01:01:45.102Z,8.10
2023-04-14T01:04:13.135Z,8.20
2023-04-14T01:06:40.555Z,8.20
2023-04-14T01:09:09.561Z,8.20
2023-04-14T01:11:48.813Z,8.20
2023-04-14T01:14:43.508Z,8.20
2023-04-14T01:17:28.975Z,8.20
2023-04-14T01:20:07.920Z,8.20
2023-04-14T01:22:52.598Z,8.20
2023-04-14T01:26:16.637Z,8.10
2023-04-14T01:29:03.060Z,8.10
2023-04-14T01:31:39.767Z,8.10
2023-04-14T01:34:15.999Z,8.10
2023-04-14T01:37:04.546Z,8.20
2023-04-14T01:39:38.541Z,8.10
2023-04-14T01:42:11.878Z,8.10
2023-04-14T01:44:41.674Z,8.10
2023-04-14T01:47:14.025Z,8.00
2023-04-14T01:49:43.882Z,8.10
2023-04-14T01:52:13.702Z,8.10
2023-04-14T01:54:43.479Z,8.10
2023-04-14T01:57:15.831Z,8.10
2023-04-14T01:59:45.249Z,8.20
2023-04-14T02:02:14.191Z,8.20
2023-04-14T02:04:42.700Z,8.10
2023-04-14T02:07:12.725Z,8.10
2023-04-14T02:09:43.885Z,8.10
2023-04-14T02:12:12.732Z,8.10
2023-04-14T02:14:42.776Z,8.10
2023-04-14T02:17:12.104Z,8.10
2023-04-14T02:19:39.782Z,8.10
2023-04-14T02:22:07.736Z,8.00
2023-04-14T02:24:35.281Z,8.00
2023-04-14T02:27:07.787Z,8.00
2023-04-14T02:29:38.414Z,8.00
2023-04-14T02:32:11.763Z,8.00
2023-04-14T02:34:56.064Z,8.00
2023-04-14T02:37:27.975Z,8.00
2023-04-14T02:40:01.296Z,8.00
2023-04-14T02:42:31.056Z,7.90
2023-04-14T02:45:06.914Z,7.80
2023-04-14T02:47:38.792Z,7.80
2023-04-14T02:50:11.917Z,7.70
2023-04-14T02:52:47.695Z,7.70
2023-04-14T02:55:15.424Z,7.70
2023-04-14T02:57:43.010Z,7.70
2023-04-14T03:00:12.393Z,7.70
2023-04-14T03:02:46.944Z,7.70
2023-04-14T03:05:14.756Z,7.70
2023-04-14T03:07:56.245Z,7.70
2023-04-14T03:10:24.786Z,7.70
2023-04-14T03:12:53.341Z,7.80
2023-04-14T03:15:23.882Z,7.70
2023-04-14T03:17:56.082Z,7.70
2023-04-14T03:20:26.861Z,7.70
2023-04-14T03:23:01.851Z,7.70
2023-04-14T03:25:38.104Z,7.70
2023-04-14T03:28:15.955Z,7.60
2023-04-14T03:30:50.610Z,7.60
2023-04-14T03:33:23.895Z,7.60
2023-04-14T03:35:53.912Z,7.60
2023-04-14T03:38:23.832Z,7.50
2023-04-14T03:40:52.033Z,7.50
2023-04-14T03:43:23.964Z,7.50
2023-04-14T03:45:58.280Z,7.50
2023-04-14T03:48:30.186Z,7.60
2023-04-14T03:51:02.314Z,7.60
2023-04-14T03:53:31.996Z,7.60
2023-04-14T03:56:02.158Z,7.60
2023-04-14T03:58:31.160Z,7.60
2023-04-14T04:00:59.436Z,7.70
2023-04-14T04:03:28.444Z,7.70
2023-04-14T04:05:56.603Z,7.70
2023-04-14T04:08:27.334Z,7.70
2023-04-14T04:10:56.548Z,7.70
2023-04-14T04:13:25.407Z,7.70
2023-04-14T04:15:52.982Z,7.70
2023-04-14T04:18:26.311Z,7.70
2023-04-14T04:20:57.039Z,7.70
2023-04-14T04:23:26.212Z,7.70
2023-04-14T04:25:54.898Z,7.70
2023-04-14T04:28:29.637Z,7.70
2023-04-14T04:30:59.268Z,7.70
2023-04-14T04:33:30.171Z,7.80
2023-04-14T04:35:58.872Z,7.80
2023-04-14T04:38:32.485Z,7.80
2023-04-14T04:41:00.934Z,7.80
2023-04-14T04:43:30.668Z,7.80
2023-04-14T04:45:58.750Z,7.80
2023-04-14T04:48:27.663Z,7.80
2023-04-14T04:50:55.557Z,7.80
2023-04-14T04:53:22.966Z,7.90
2023-04-14T04:55:50.412Z,7.90
2023-04-14T04:58:17.777Z,7.90
2023-04-14T05:00:45.396Z,7.90
2023-04-14T05:03:12.944Z,7.90
2023-04-14T05:05:40.755Z,7.90
2023-04-14T05:08:08.401Z,7.90
2023-04-14T05:10:38.302Z,7.90
2023-04-14T05:13:05.654Z,7.90
2023-04-14T05:15:32.931Z,7.90
2023-04-14T05:18:01.626Z,7.90
2023-04-14T05:20:29.286Z,8.00
2023-04-14T05:22:56.472Z,8.00
2023-04-14T05:25:23.903Z,8.00
2023-04-14T05:27:51.135Z,8.00
2023-04-14T05:30:18.363Z,8.00
2023-04-14T05:32:45.698Z,8.00
2023-04-14T05:35:13.050Z,8.10
2023-04-14T05:37:40.453Z,8.10
2023-04-14T05:40:08.553Z,8.10
2023-04-14T05:42:36.593Z,8.10
2023-04-14T05:45:04.421Z,8.10
2023-04-14T05:47:32.031Z,8.20
2023-04-14T05:49:59.439Z,8.20
2023-04-14T05:52:26.639Z,8.20
2023-04-14T05:54:54.027Z,8.20
2023-04-14T05:57:21.498Z,8.30
2023-04-14T05:59:48.747Z,8.30
2023-04-14T06:02:16.174Z,8.20
2023-04-14T06:04:43.881Z,8.30
2023-04-14T06:07:11.219Z,8.30
2023-04-14T06:09:38.515Z,8.30
2023-04-14T06:12:05.927Z,8.40
2023-04-14T06:14:33.266Z,8.40
2023-04-14T06:17:01.058Z,8.40
2023-04-14T06:19:28.249Z,8.40
2023-04-14T06:21:55.541Z,7.10
2023-04-14T06:24:22.704Z,8.50
2023-04-14T06:26:49.849Z,8.50
2023-04-14T06:29:17.274Z,8.60
2023-04-14T06:31:44.515Z,8.60
2023-04-14T06:34:11.670Z,8.60
2023-04-14T06:36:39.062Z,8.70
2023-04-14T06:39:06.301Z,8.70
2023-04-14T06:41:33.506Z,8.70
2023-04-14T06:44:04.772Z,8.70
2023-04-14T06:46:35.930Z,8.80
2023-04-14T06:49:03.937Z,8.70
2023-04-14T06:51:33.765Z,8.80
2023-04-14T06:54:01.362Z,8.80
2023-04-14T06:56:31.236Z,8.90
2023-04-14T06:58:58.576Z,8.90
2023-04-14T07:01:25.968Z,8.90
2023-04-14T07:03:53.155Z,9.00
2023-04-14T07:06:20.317Z,9.00
2023-04-14T07:08:48.155Z,9.00
2023-04-14T07:11:15.315Z,9.10
2023-04-14T07:13:42.580Z,9.20
2023-04-14T07:16:10.088Z,9.20
2023-04-14T07:18:37.324Z,9.30
2023-04-14T07:21:04.666Z,9.30
2023-04-14T07:23:33.668Z,9.30
2023-04-14T07:26:01.234Z,9.30
2023-04-14T07:28:28.570Z,9.40
2023-04-14T07:30:55.936Z,9.50
2023-04-14T07:33:23.962Z,9.60
2023-04-14T07:36:02.733Z,9.70
2023-04-14T07:38:33.093Z,9.70
2023-04-14T07:41:03.866Z,9.80
2023-04-14T07:43:36.843Z,9.90
2023-04-14T07:46:06.631Z,9.90
2023-04-14T07:48:37.670Z,10.00
2023-04-14T07:51:06.160Z,10.00
2023-04-14T07:53:34.422Z,10.00
2023-04-14T07:56:01.748Z,10.00
2023-04-14T07:58:29.616Z,10.10
2023-04-14T08:00:57.335Z,10.10
2023-04-14T08:03:24.760Z,10.10
2023-04-14T08:05:52.419Z,10.10
2023-04-14T08:08:19.721Z,10.10
2023-04-14T08:10:46.871Z,10.10
2023-04-14T08:13:14.016Z,10.10
2023-04-14T08:15:41.177Z,10.10
2023-04-14T08:18:08.372Z,10.10
2023-04-14T08:20:35.653Z,10.10
2023-04-14T08:23:02.964Z,10.10
2023-04-14T08:25:30.466Z,10.10
2023-04-14T08:27:57.698Z,10.10
2023-04-14T08:30:24.973Z,10.10
2023-04-14T08:32:52.313Z,10.20
2023-04-14T08:35:35.509Z,10.10
2023-04-14T08:38:07.694Z,10.00
2023-04-14T08:40:43.281Z,10.00
2023-04-14T08:43:13.228Z,10.00
2023-04-14T08:45:43.427Z,10.00
2023-04-14T08:48:12.123Z,10.10
2023-04-14T08:50:49.845Z,10.10
2023-04-14T08:53:21.003Z,10.20
2023-04-14T08:55:48.416Z,10.70
2023-04-14T08:58:15.970Z,9.30
2023-04-14T09:00:43.368Z,10.40
2023-04-14T09:03:12.404Z,10.30
2023-04-14T09:05:41.625Z,10.30
2023-04-14T09:08:08.841Z,10.20
2023-04-14T09:10:36.661Z,10.20
2023-04-14T09:13:05.190Z,10.30
2023-04-14T09:15:32.383Z,10.70
2023-04-14T09:17:59.841Z,10.20
2023-04-14T09:20:34.707Z,10.30
2023-04-14T09:23:11.642Z,10.30
2023-04-14T09:25:41.045Z,10.40
2023-04-14T09:28:08.775Z,10.30
2023-04-14T09:30:36.337Z,10.30
2023-04-14T09:33:08.313Z,10.20
2023-04-14T09:35:49.208Z,10.20
2023-04-14T09:38:36.454Z,10.20
2023-04-14T09:41:07.772Z,10.20
2023-04-14T09:43:36.714Z,10.20
2023-04-14T09:46:11.148Z,10.10
2023-04-14T09:48:52.273Z,10.00
2023-04-14T09:51:33.195Z,9.90
2023-04-14T09:54:05.363Z,9.70
2023-04-14T09:56:32.814Z,9.60
2023-04-14T09:59:02.107Z,9.60
2023-04-14T10:01:33.712Z,9.60
2023-04-14T10:04:02.937Z,9.60
2023-04-14T10:06:33.804Z,9.60
2023-04-14T10:09:02.043Z,9.50
2023-04-14T10:11:35.288Z,9.60
2023-04-14T10:14:06.644Z,9.60
2023-04-14T10:16:34.534Z,9.60
2023-04-14T10:19:03.037Z,9.60
2023-04-14T10:21:30.823Z,9.70
2023-04-14T10:23:58.335Z,9.80
2023-04-14T10:26:26.631Z,9.80
2023-04-14T10:28:56.099Z,9.80
2023-04-14T10:31:32.191Z,9.80
2023-04-14T10:34:07.017Z,9.80
2023-04-14T10:36:36.899Z,9.80
2023-04-14T10:39:05.849Z,9.80
2023-04-14T10:41:48.116Z,9.90
2023-04-14T10:44:34.988Z,9.90
2023-04-14T10:47:07.685Z,9.50
2023-04-14T10:49:39.572Z,9.90
2023-04-14T10:52:13.510Z,9.80
2023-04-14T10:54:52.367Z,10.00
2023-04-14T10:57:24.579Z,9.90
2023-04-14T10:59:57.121Z,10.00
2023-04-14T11:02:35.180Z,10.10
2023-04-14T11:05:11.780Z,10.00
2023-04-14T11:07:51.722Z,10.00
2023-04-14T11:10:24.542Z,9.90
2023-04-14T11:13:03.973Z,9.90
2023-04-14T11:16:02.808Z,10.00
2023-04-14T11:18:30.083Z,10.00
2023-04-14T11:21:13.351Z,10.00
2023-04-14T11:23:41.615Z,9.90
2023-04-14T11:26:10.819Z,9.90
2023-04-14T11:28:41.451Z,9.80
2023-04-14T11:31:11.311Z,9.80
2023-04-14T11:33:41.671Z,9.80
2023-04-14T11:36:11.492Z,9.90
2023-04-14T11:38:41.884Z,9.90
2023-04-14T11:41:09.660Z,9.90
2023-04-14T11:43:38.451Z,9.90
2023-04-14T11:46:08.080Z,9.90
2023-04-14T11:48:35.418Z,9.90
2023-04-14T11:51:03.902Z,9.80
2023-04-14T11:53:32.090Z,9.70
2023-04-14T11:56:00.986Z,9.70
2023-04-14T11:58:28.916Z,9.60
2023-04-14T12:00:59.281Z,9.70
2023-04-14T12:03:33.084Z,9.50
2023-04-14T12:06:02.910Z,9.50
2023-04-14T12:08:31.113Z,9.40
2023-04-14T12:10:58.997Z,9.40
2023-04-14T12:13:26.927Z,9.40
2023-04-14T12:15:54.645Z,9.50
2023-04-14T12:18:23.071Z,9.50
2023-04-14T12:21:03.245Z,9.50
2023-04-14T12:23:37.795Z,9.50
2023-04-14T12:26:13.231Z,9.60
2023-04-14T12:28:41.812Z,9.60
2023-04-14T12:31:10.733Z,9.70
2023-04-14T12:33:38.128Z,9.70
2023-04-14T12:36:07.451Z,9.70
2023-04-14T12:38:35.057Z,9.70
2023-04-14T12:41:02.694Z,9.60
2023-04-14T12:43:41.256Z,9.60
2023-04-14T12:46:08.546Z,9.60
2023-04-14T12:48:45.901Z,9.50
2023-04-14T12:51:19.021Z,9.50
2023-04-14T12:53:50.040Z,9.50
2023-04-14T12:56:27.492Z,9.50
2023-04-14T12:58:55.292Z,9.50
2023-04-14T13:01:23.608Z,9.40
2023-04-14T13:03:55.766Z,9.40
2023-04-14T13:06:25.173Z,9.30
2023-04-14T13:08:54.090Z,9.30
2023-04-14T13:11:23.457Z,9.20
2023-04-14T13:13:52.386Z,9.10
2023-04-14T13:16:20.953Z,9.00
2023-04-14T13:18:55.134Z,8.90
2023-04-14T13:21:22.380Z,8.70
2023-04-14T13:23:49.637Z,8.70
2023-04-14T13:26:16.953Z,8.70
2023-04-14T13:28:44.250Z,8.60
2023-04-14T13:31:13.162Z,8.60
2023-04-14T13:33:40.683Z,8.50
2023-04-14T13:36:08.120Z,8.50
2023-04-14T13:38:35.294Z,8.40
2023-04-14T13:41:02.440Z,8.40
2023-04-14T13:43:30.668Z,8.30
2023-04-14T13:45:58.671Z,8.20
2023-04-14T13:48:27.628Z,8.20
2023-04-14T13:50:55.809Z,8.20
2023-04-14T13:53:23.302Z,8.10
2023-04-14T13:55:50.968Z,8.00
2023-04-14T13:58:18.244Z,8.00
2023-04-14T14:00:45.458Z,7.90
2023-04-14T14:03:13.122Z,7.90
2023-04-14T14:05:40.509Z,7.90
2023-04-14T14:08:07.760Z,7.90
2023-04-14T14:10:34.993Z,7.90
2023-04-14T14:13:02.657Z,7.80
2023-04-14T14:15:30.180Z,7.70
2023-04-14T14:17:57.568Z,7.60
2023-04-14T14:20:24.950Z,7.60
2023-04-14T14:22:52.391Z,7.60
2023-04-14T14:25:21.235Z,7.60
2023-04-14T14:27:51.832Z,7.60
2023-04-14T14:30:19.090Z,7.70
2023-04-14T14:32:46.333Z,7.60
2023-04-14T14:35:13.518Z,7.60
2023-04-14T14:37:42.058Z,7.60
2023-04-14T14:40:09.979Z,7.60
2023-04-14T14:42:37.445Z,7.50
2023-04-14T14:45:06.829Z,7.50
2023-04-14T14:47:34.301Z,7.50
2023-04-14T14:50:05.881Z,7.50
2023-04-14T14:52:35.006Z,7.60
2023-04-14T14:55:03.500Z,7.60
2023-04-14T14:57:31.172Z,7.60
2023-04-14T14:59:58.749Z,7.50
2023-04-14T15:02:26.592Z,7.50
2023-04-14T15:04:54.600Z,7.50
2023-04-14T15:07:21.979Z,7.50
2023-04-14T15:09:50.480Z,7.40
2023-04-14T15:12:18.149Z,7.40
2023-04-14T15:14:45.511Z,7.40
2023-04-14T15:17:12.705Z,7.30
2023-04-14T15:19:40.888Z,7.30
2023-04-14T15:22:08.953Z,7.20
2023-04-14T15:24:36.147Z,7.20
2023-04-14T15:27:03.457Z,7.20
2023-04-14T15:29:31.334Z,7.20
2023-04-14T15:31:58.585Z,7.20
2023-04-14T15:34:26.091Z,7.10
2023-04-14T15:36:54.543Z,7.20
2023-04-14T15:39:22.160Z,7.20
2023-04-14T15:41:50.490Z,7.20
2023-04-14T15:44:18.544Z,7.20
2023-04-14T15:46:46.326Z,7.20
2023-04-14T15:49:13.495Z,7.20
2023-04-14T15:51:40.986Z,7.80
2023-04-14T15:54:08.075Z,7.20
2023-04-14T15:56:35.558Z,7.20
2023-04-14T15:59:02.767Z,7.20
2023-04-14T16:01:30.363Z,7.20
2023-04-14T16:03:57.705Z,7.20
2023-04-14T16:06:24.956Z,7.20
2023-04-14T16:08:53.410Z,7.30
2023-04-14T16:11:20.742Z,7.30
2023-04-14T16:13:48.168Z,7.30
2023-04-14T16:16:17.800Z,7.30
2023-04-14T16:18:45.114Z,7.30
2023-04-14T16:21:12.403Z,7.30
2023-04-14T16:23:39.596Z,7.30
2023-04-14T16:26:07.178Z,7.30
2023-04-14T16:28:35.258Z,7.30
2023-04-14T16:31:02.929Z,7.30
2023-04-14T16:33:32.510Z,7.20
2023-04-14T16:36:04.475Z,7.20
2023-04-14T16:38:32.291Z,7.20
2023-04-14T16:41:02.160Z,7.20
2023-04-14T16:43:30.096Z,7.20
2023-04-14T16:46:04.796Z,7.20
2023-04-14T16:48:32.589Z,7.20
2023-04-14T16:51:08.327Z,7.20
2023-04-14T16:53:37.694Z,7.20
2023-04-14T16:56:09.449Z,7.40
2023-04-14T16:58:38.297Z,7.20
2023-04-14T17:01:07.206Z,7.20
2023-04-14T17:03:35.025Z,7.30
2023-04-14T17:06:03.185Z,7.30
2023-04-14T17:08:30.768Z,7.30
2023-04-14T17:10:58.898Z,7.30
2023-04-14T17:13:26.938Z,7.30
2023-04-14T17:16:02.477Z,7.30
2023-04-14T17:18:35.412Z,7.20
2023-04-14T17:21:02.936Z,7.20
2023-04-14T17:23:30.445Z,7.20
2023-04-14T17:25:59.783Z,7.20
2023-04-14T17:28:27.577Z,7.20
2023-04-14T17:30:55.716Z,7.20
2023-04-14T17:33:27.286Z,7.20
2023-04-14T17:35:55.618Z,7.20
2023-04-14T17:38:23.473Z,7.20
2023-04-14T17:40:51.845Z,7.20
2023-04-14T17:43:19.218Z,7.20
2023-04-14T17:45:50.333Z,7.20
2023-04-14T17:48:20.862Z,7.20
2023-04-14T17:50:49.046Z,7.20
2023-04-14T17:53:17.022Z,7.20
2023-04-14T17:55:44.919Z,7.20
2023-04-14T17:58:12.475Z,7.20
2023-04-14T18:00:40.006Z,7.30
2023-04-14T18:03:07.615Z,7.30
2023-04-14T18:05:35.174Z,7.30
2023-04-14T18:08:02.773Z,7.30
2023-04-14T18:10:30.141Z,7.30
2023-04-14T18:12:57.703Z,7.40
2023-04-14T18:15:25.292Z,7.60
2023-04-14T18:17:52.783Z,7.40
2023-04-14T18:20:24.856Z,7.50
2023-04-14T18:23:01.954Z,7.50
2023-04-14T18:28:03.920Z,7.50
2023-04-14T18:30:31.580Z,7.50
2023-04-14T18:33:00.832Z,7.50
2023-04-14T18:35:29.230Z,7.50
2023-04-14T18:37:56.668Z,7.60
2023-04-14T18:40:24.897Z,7.60
2023-04-14T18:42:54.736Z,7.60
2023-04-14T18:45:22.117Z,7.60
2023-04-14T18:47:50.042Z,7.70
2023-04-14T18:50:18.299Z,7.70
2023-04-14T18:52:45.929Z,7.70
2023-04-14T18:55:13.617Z,7.70
2023-04-14T18:57:41.136Z,7.70
2023-04-14T19:00:09.643Z,7.70
2023-04-14T19:02:37.379Z,7.80
2023-04-14T19:05:06.544Z,7.70
2023-04-14T19:07:34.246Z,7.80
2023-04-14T19:10:06.077Z,7.80
2023-04-14T19:12:35.236Z,7.80
2023-04-14T19:15:02.958Z,7.80
2023-04-14T19:17:34.406Z,7.80
2023-04-14T19:20:02.368Z,7.80
2023-04-14T19:22:30.285Z,7.80
2023-04-14T19:24:57.736Z,7.80
2023-04-14T19:27:25.382Z,7.80
2023-04-14T19:29:53.731Z,7.80
2023-04-14T19:32:21.623Z,7.80
2023-04-14T19:34:52.851Z,7.80
2023-04-14T19:37:20.310Z,7.80
2023-04-14T19:39:48.026Z,7.80
2023-04-14T19:42:15.409Z,7.80
2023-04-14T19:44:42.933Z,7.90
2023-04-14T19:47:10.700Z,7.90
2023-04-14T19:49:38.307Z,7.80
2023-04-14T19:52:05.914Z,7.80
2023-04-14T19:54:34.049Z,7.90
2023-04-14T19:57:02.030Z,7.90
2023-04-14T19:59:31.607Z,7.90
2023-04-14T20:02:00.920Z,7.90
2023-04-14T20:04:28.852Z,7.90
2023-04-14T20:06:56.479Z,7.90
2023-04-14T20:09:24.719Z,7.90
2023-04-14T20:11:56.171Z,7.90
2023-04-14T20:14:23.746Z,8.00
2023-04-14T20:16:51.645Z,7.90
2023-04-14T20:19:21.017Z,7.90
2023-04-14T20:21:48.915Z,7.90
2023-04-14T20:24:16.434Z,7.90
2023-04-14T20:26:46.980Z,7.90
2023-04-14T20:29:16.829Z,7.90
2023-04-14T20:31:44.711Z,7.90
2023-04-14T20:34:13.460Z,7.90
2023-04-14T20:36:41.901Z,7.90
2023-04-14T20:39:09.582Z,7.90
2023-04-14T20:41:37.637Z,7.80
2023-04-14T20:44:05.521Z,8.40
2023-04-14T20:46:33.353Z,7.90
2023-04-14T20:49:01.629Z,7.80
2023-04-14T20:51:29.911Z,7.90
2023-04-14T20:53:57.549Z,7.90
2023-04-14T20:56:28.586Z,7.90
2023-04-14T20:58:56.442Z,7.90
2023-04-14T21:01:25.729Z,7.80
2023-04-14T21:03:53.697Z,7.80
2023-04-14T21:06:21.144Z,7.90
2023-04-14T21:08:48.599Z,7.90
2023-04-14T21:11:18.835Z,7.90
2023-04-14T21:15:28.384Z,7.90
2023-04-14T21:16:35.056Z,7.90
2023-04-14T21:19:03.764Z,7.90
2023-04-14T21:21:33.149Z,7.90
2023-04-14T21:24:01.582Z,7.90
2023-04-14T21:26:29.443Z,7.90
2023-04-14T21:28:57.038Z,7.90
2023-04-14T21:31:24.522Z,8.00
2023-04-14T21:33:51.991Z,8.00
2023-04-14T21:36:19.932Z,8.00
2023-04-14T21:38:48.129Z,8.00
2023-04-14T21:41:16.087Z,8.00
2023-04-14T21:43:43.511Z,8.00
2023-04-14T21:46:10.828Z,8.00
2023-04-14T21:48:38.272Z,8.00
2023-04-14T21:51:05.865Z,8.00
2023-04-14T21:53:33.520Z,8.00
2023-04-14T21:56:10.240Z,8.00
2023-04-14T21:58:39.686Z,7.50
2023-04-14T22:01:07.902Z,8.00
2023-04-14T22:03:37.587Z,8.00
2023-04-14T22:06:05.634Z,7.90
2023-04-14T22:08:37.394Z,7.90
2023-04-14T22:11:08.307Z,7.90
2023-04-14T22:13:38.848Z,7.80
2023-04-14T22:16:07.153Z,7.80
2023-04-14T22:18:35.953Z,7.80
2023-04-14T22:21:04.863Z,7.80
2023-04-14T22:23:33.082Z,7.70
2023-04-14T22:26:01.116Z,7.70
2023-04-14T22:28:28.531Z,7.70
2023-04-14T22:30:56.090Z,7.70
2023-04-14T22:33:23.530Z,7.70
2023-04-14T22:35:51.017Z,7.70
2023-04-14T22:38:18.347Z,7.70
2023-04-14T22:40:45.738Z,7.70
2023-04-14T22:43:13.504Z,7.70
2023-04-14T22:45:42.058Z,7.70
2023-04-14T22:48:11.232Z,7.70
2023-04-14T22:50:39.341Z,7.80
2023-04-14T22:53:09.990Z,7.80
2023-04-14T22:55:37.877Z,7.80
2023-04-14T22:58:05.331Z,7.80
2023-04-14T23:00:33.468Z,7.80
2023-04-14T23:03:01.048Z,7.80
2023-04-14T23:05:28.666Z,7.80
2023-04-14T23:07:56.042Z,7.80
2023-04-14T23:10:24.151Z,7.80
2023-04-14T23:12:51.616Z,7.80
2023-04-14T23:15:19.245Z,7.80
2023-04-14T23:17:47.136Z,7.80
2023-04-14T23:20:14.451Z,7.80
2023-04-14T23:22:41.812Z,7.70
2023-04-14T23:25:09.393Z,7.60
2023-04-14T23:27:36.617Z,7.80
2023-04-14T23:30:05.349Z,7.80
2023-04-14T23:32:33.189Z,7.80
2023-04-14T23:35:00.754Z,7.80
2023-04-14T23:37:28.114Z,7.70
2023-04-14T23:39:55.639Z,7.70
2023-04-14T23:42:22.893Z,7.70
2023-04-14T23:44:50.018Z,7.70
2023-04-14T23:47:17.402Z,7.70
2023-04-14T23:49:44.575Z,7.70
2023-04-14T23:52:11.984Z,7.70
2023-04-14T23:54:39.113Z,7.70
2023-04-14T23:57:06.287Z,7.70
2023-04-14T23:59:33.463Z,7.80
